Aviation Digital Data Service (ADDS)

Output produced by METARs form (0014 UTC 26 June 2019)
found at http://aviationweather.gov/metar/data/
 
KBTR 252329Z 2600/2624 04008KT P6SM SKC 
     FM260300 VRB03KT P6SM OVC120 
     FM261500 17005KT P6SM BKN110